Flight Track Log - Related Links

Times and Time Zones

All times are in EDT time to prevent confusion due to time zone crossing. See the CLH44 flight status page for this flight to view local times or setup timezone preferences in your user account.

Time Position Orientation Groundspeed Altitude Reporting Facility
EDT Latitude Longitude Course Direction KTS MPH feet Rate Location/Type
Wed 03:29:00 PM 50.4907 8.5785 North  Level Estimated
Wed 03:30:00 PM 50.5681 8.5845 North  Level Estimated
Wed 03:31:00 PM 50.6759 8.5928 North  Level Estimated
Wed 03:32:00 PM 50.7837 8.6012 North  Level Estimated
Wed 03:33:00 PM 50.8915 8.6096 North  Level Estimated
Wed 03:34:00 PM 50.9993 8.6181 North  Level Estimated
Wed 03:35:00 PM 51.1071 8.6266 North  Level Estimated
Wed 03:36:00 PM 51.2148 8.6351 North  Level Estimated
Wed 03:37:00 PM 51.3226 8.6437 North  Level Estimated
Wed 03:38:00 PM 51.4304 8.6523 North  Level Estimated
Wed 03:39:00 PM 51.5382 8.6610 North  Level Estimated
Wed 03:40:00 PM 51.6460 8.6697 North  Level Estimated
Wed 03:41:00 PM 51.7537 8.6784 North  Level Estimated
Wed 03:42:00 PM 51.8615 8.6872 North  Level Estimated
Wed 03:43:00 PM 51.9693 8.6960 North  Level Estimated
Wed 03:44:00 PM 52.0771 8.7049 North  Level Estimated
Wed 03:45:00 PM 52.1849 8.7138 North  Level Estimated
Wed 03:46:00 PM 52.2926 8.7227 North  Level Estimated
Wed 03:47:00 PM 52.4004 8.7317 North  Level Estimated
Wed 03:48:00 PM 52.5082 8.7408 North  Level Estimated
Wed 03:49:00 PM 52.6160 8.7498 North  Level Estimated
Wed 03:50:00 PM 52.7237 8.7590 North  Level Estimated
Wed 03:51:00 PM 52.8315 8.7681 North  Level Estimated
Wed 03:52:00 PM 52.9393 8.7774 North  Level Estimated
Wed 03:53:00 PM 53.0471 8.7866 North  Level Estimated
Wed 03:54:00 PM 53.0475 8.7867 North  Level Estimated
Wed 03:55:00 PM 53.0475 8.7867 270° West  Level Estimated
Wed 03:56:00 PM 53.0475 8.7867 270° West  Level Estimated
Wed 03:57:00 PM 53.0475 8.7867 270° West  Level Estimated
Wed 03:58:00 PM 53.0475 8.7867 270° West  Level Estimated
Wed 03:59:00 PM 53.0475 8.7867 270° West  Level Estimated
Wed 04:00:00 PM 53.0475 8.7867 270° West  Level Estimated
Wed 04:01:00 PM 53.0475 8.7867 270° West  Level Estimated
Wed 04:02:00 PM 53.0475 8.7867 270° West  Level Estimated
Wed 04:03:00 PM 53.0475 8.7867 270° West  Level Estimated
Wed 04:04:00 PM 53.0475 8.7867 270° West  Level Estimated
Wed 04:05:00 PM 53.0475 8.7867 270° West  Level Estimated
Wed 04:06:00 PM 53.0475 8.7867 270° West  Level Estimated
Wed 04:07:00 PM 53.0475 8.7867 270° West  Level Estimated

Login

Don't have an account? Register now (free) for customized features, flight alerts, and more!